createdAt,value
2023-05-09T00:00:45.374Z,49.01
2023-05-09T00:01:46.978Z,49.32
2023-05-09T00:02:48.647Z,48.89
2023-05-09T00:03:51.829Z,49.02
2023-05-09T00:04:53.594Z,49.80
2023-05-09T00:05:55.223Z,49.12
2023-05-09T00:06:56.950Z,49.45
2023-05-09T00:07:58.508Z,49.31
2023-05-09T00:09:00.111Z,48.88
2023-05-09T00:10:01.755Z,49.52
2023-05-09T00:11:03.477Z,49.38
2023-05-09T00:12:05.487Z,49.81
2023-05-09T00:13:07.224Z,49.16
2023-05-09T00:14:08.814Z,48.88
2023-05-09T00:15:11.016Z,48.67
2023-05-09T00:16:13.885Z,49.18
2023-05-09T00:17:16.134Z,48.97
2023-05-09T00:18:18.068Z,48.92
2023-05-09T00:19:20.206Z,48.65
2023-05-09T00:20:21.786Z,49.09
2023-05-09T00:21:23.329Z,48.77
2023-05-09T00:22:24.922Z,48.92
2023-05-09T00:23:26.450Z,49.36
2023-05-09T00:24:28.074Z,48.98
2023-05-09T00:25:29.665Z,48.54
2023-05-09T00:26:31.203Z,48.87
2023-05-09T00:27:32.752Z,48.84
2023-05-09T00:28:34.320Z,49.13
2023-05-09T00:29:35.984Z,48.52
2023-05-09T00:30:37.554Z,48.63
2023-05-09T00:31:39.187Z,48.69
2023-05-09T00:32:41.655Z,49.09
2023-05-09T00:33:43.407Z,48.82
2023-05-09T00:34:44.957Z,49.11
2023-05-09T00:35:46.771Z,49.28
2023-05-09T00:36:48.369Z,49.43
2023-05-09T00:37:49.942Z,50.12
2023-05-09T00:38:51.506Z,50.06
2023-05-09T00:39:53.096Z,49.44
2023-05-09T00:40:54.638Z,49.17
2023-05-09T00:41:56.445Z,49.53
2023-05-09T00:42:59.558Z,48.94
2023-05-09T00:44:01.113Z,49.40
2023-05-09T00:45:02.815Z,49.32
2023-05-09T00:46:04.600Z,49.09
2023-05-09T00:47:07.479Z,49.47
2023-05-09T00:48:09.048Z,48.92
2023-05-09T00:49:12.388Z,49.32
2023-05-09T00:50:14.020Z,49.87
2023-05-09T00:51:15.739Z,49.82
2023-05-09T00:52:21.846Z,50.08
2023-05-09T00:53:23.407Z,49.87
2023-05-09T00:54:25.152Z,49.93
2023-05-09T00:55:27.336Z,49.74
2023-05-09T00:56:28.875Z,50.32
2023-05-09T00:57:30.616Z,49.72
2023-05-09T00:58:32.258Z,50.07
2023-05-09T00:59:33.820Z,50.27
2023-05-09T01:00:35.534Z,50.19
2023-05-09T01:01:37.507Z,49.81
2023-05-09T01:02:43.878Z,50.22
2023-05-09T01:03:45.783Z,49.85
2023-05-09T01:04:47.347Z,49.79
2023-05-09T01:06:09.279Z,49.81
2023-05-09T01:07:29.960Z,49.30
2023-05-09T01:08:56.190Z,49.38
2023-05-09T01:10:04.833Z,49.15
2023-05-09T01:11:25.106Z,49.40
2023-05-09T01:12:31.831Z,49.92
2023-05-09T01:13:49.763Z,48.96
2023-05-09T01:15:07.928Z,49.34
2023-05-09T01:16:35.478Z,48.87
2023-05-09T01:17:39.132Z,48.77
2023-05-09T01:18:45.589Z,48.94
2023-05-09T01:19:50.055Z,48.71
2023-05-09T01:20:58.504Z,49.28
2023-05-09T01:22:01.014Z,49.17
2023-05-09T01:23:30.284Z,49.24
2023-05-09T01:24:46.392Z,49.10
2023-05-09T01:25:54.493Z,48.82
2023-05-09T01:27:15.804Z,48.85
2023-05-09T01:28:19.442Z,48.58
2023-05-09T01:29:35.373Z,48.46
2023-05-09T01:30:36.957Z,48.52
2023-05-09T01:31:39.850Z,48.70
2023-05-09T01:32:42.189Z,48.50
2023-05-09T01:33:43.872Z,48.53
2023-05-09T01:34:45.441Z,49.10
2023-05-09T01:35:50.099Z,49.07
2023-05-09T01:36:52.008Z,49.01
2023-05-09T01:37:53.553Z,49.58
2023-05-09T01:38:55.106Z,49.07
2023-05-09T01:39:58.835Z,48.92
2023-05-09T01:41:00.466Z,48.89
2023-05-09T01:42:03.223Z,49.37
2023-05-09T01:43:07.234Z,48.82
2023-05-09T01:44:11.156Z,48.55
2023-05-09T01:45:13.870Z,48.93
2023-05-09T01:46:16.163Z,48.64
2023-05-09T01:47:18.426Z,48.89
2023-05-09T01:48:21.013Z,48.93
2023-05-09T01:49:22.763Z,48.97
2023-05-09T01:50:24.299Z,48.89
2023-05-09T01:51:26.039Z,49.77
2023-05-09T01:52:27.962Z,50.12
2023-05-09T01:53:29.535Z,50.07
2023-05-09T01:54:31.158Z,49.52
2023-05-09T01:55:33.812Z,49.71
2023-05-09T01:56:36.271Z,49.74
2023-05-09T01:57:38.130Z,49.53
2023-05-09T01:58:39.680Z,49.14
2023-05-09T01:59:42.283Z,49.27
2023-05-09T02:00:44.065Z,49.39
2023-05-09T02:01:46.232Z,49.41
2023-05-09T02:02:48.007Z,49.35
2023-05-09T02:03:52.660Z,49.44
2023-05-09T02:04:55.894Z,49.25
2023-05-09T02:05:57.422Z,49.52
2023-05-09T02:06:58.978Z,49.56
2023-05-09T02:08:00.738Z,49.52
2023-05-09T02:09:02.686Z,49.38
2023-05-09T02:10:05.021Z,49.25
2023-05-09T02:11:07.341Z,49.60
2023-05-09T02:12:09.021Z,49.64
2023-05-09T02:13:10.991Z,49.75
2023-05-09T02:14:13.494Z,49.78
2023-05-09T02:15:15.232Z,49.85
2023-05-09T02:16:17.262Z,49.90
2023-05-09T02:17:19.229Z,49.66
2023-05-09T02:18:21.826Z,50.23
2023-05-09T02:19:23.361Z,50.19
2023-05-09T02:20:24.931Z,50.47
2023-05-09T02:21:27.898Z,50.28
2023-05-09T02:22:30.706Z,49.93
2023-05-09T02:23:32.328Z,49.85
2023-05-09T02:24:36.788Z,50.04
2023-05-09T02:25:38.441Z,49.71
2023-05-09T02:26:40.413Z,50.32
2023-05-09T02:27:42.469Z,50.00
2023-05-09T02:28:44.413Z,49.73
2023-05-09T02:29:50.575Z,49.98
2023-05-09T02:30:52.213Z,49.62
2023-05-09T02:31:53.770Z,50.04
2023-05-09T02:32:59.886Z,49.79
2023-05-09T02:34:02.513Z,49.63
2023-05-09T02:35:04.213Z,49.84
2023-05-09T02:36:06.210Z,49.68
2023-05-09T02:37:07.835Z,50.06
2023-05-09T02:38:09.402Z,50.04
2023-05-09T02:39:11.442Z,50.28
2023-05-09T02:40:13.455Z,50.07
2023-05-09T02:41:15.672Z,50.17
2023-05-09T02:42:21.267Z,50.35
2023-05-09T02:43:22.800Z,50.35
2023-05-09T02:44:24.360Z,50.33
2023-05-09T02:45:26.147Z,49.90
2023-05-09T02:46:31.036Z,49.99
2023-05-09T02:47:33.033Z,50.25
2023-05-09T02:48:35.369Z,50.69
2023-05-09T02:49:36.971Z,50.83
2023-05-09T02:50:39.515Z,50.86
2023-05-09T02:51:41.119Z,50.89
2023-05-09T02:52:42.624Z,50.78
2023-05-09T02:53:44.173Z,50.80
2023-05-09T02:54:45.808Z,51.05
2023-05-09T02:55:47.357Z,50.91
2023-05-09T02:56:48.908Z,50.73
2023-05-09T02:57:54.113Z,50.55
2023-05-09T02:59:04.114Z,50.62
2023-05-09T03:00:09.685Z,51.93
2023-05-09T03:01:11.262Z,51.05
2023-05-09T03:02:12.850Z,51.08
2023-05-09T03:03:14.701Z,50.75
2023-05-09T03:04:28.209Z,50.70
2023-05-09T03:05:29.744Z,50.56
2023-05-09T03:06:31.412Z,50.92
2023-05-09T03:07:33.000Z,50.97
2023-05-09T03:08:34.540Z,50.89
2023-05-09T03:09:36.138Z,50.54
2023-05-09T03:10:37.682Z,50.86
2023-05-09T03:11:39.317Z,50.58
2023-05-09T03:12:43.679Z,50.85
2023-05-09T03:13:45.712Z,50.71
2023-05-09T03:14:47.392Z,50.53
2023-05-09T03:15:48.981Z,50.12
2023-05-09T03:16:50.551Z,50.13
2023-05-09T03:17:52.133Z,50.36
2023-05-09T03:18:54.048Z,49.86
2023-05-09T03:19:55.669Z,50.61
2023-05-09T03:20:57.368Z,50.58
2023-05-09T03:21:58.912Z,50.25
2023-05-09T03:23:00.862Z,50.53
2023-05-09T03:24:04.592Z,50.83
2023-05-09T03:25:06.556Z,50.75
2023-05-09T03:26:08.113Z,50.84
2023-05-09T03:27:09.652Z,50.66
2023-05-09T03:28:11.506Z,51.13
2023-05-09T03:29:13.092Z,50.96
2023-05-09T03:30:14.756Z,50.92
2023-05-09T03:31:16.407Z,50.70
2023-05-09T03:32:17.990Z,50.77
2023-05-09T03:33:19.917Z,50.67
2023-05-09T03:34:21.526Z,50.92
2023-05-09T03:35:23.164Z,51.13
2023-05-09T03:36:24.864Z,51.12
2023-05-09T03:37:27.185Z,50.87
2023-05-09T03:38:28.930Z,51.06
2023-05-09T03:39:30.542Z,50.77
2023-05-09T03:40:32.076Z,50.98
2023-05-09T03:41:36.001Z,51.12
2023-05-09T03:42:37.564Z,50.90
2023-05-09T03:43:39.249Z,50.95
2023-05-09T03:44:40.943Z,51.15
2023-05-09T03:45:42.485Z,51.09
2023-05-09T03:46:44.042Z,50.85
2023-05-09T03:47:46.257Z,50.96
2023-05-09T03:48:47.853Z,50.62
2023-05-09T03:49:49.432Z,51.84
2023-05-09T03:50:51.030Z,51.51
2023-05-09T03:51:52.536Z,51.02
2023-05-09T03:52:55.259Z,52.05
2023-05-09T03:53:56.792Z,51.39
2023-05-09T03:54:58.355Z,52.19
2023-05-09T03:55:59.905Z,52.14
2023-05-09T03:57:01.438Z,52.49
2023-05-09T03:58:03.803Z,51.99
2023-05-09T03:59:05.352Z,51.19
2023-05-09T04:00:08.131Z,51.45
2023-05-09T04:01:09.750Z,51.80
2023-05-09T04:02:11.671Z,51.89
2023-05-09T04:03:13.268Z,52.85
2023-05-09T04:04:14.836Z,52.30
2023-05-09T04:05:16.801Z,51.72
2023-05-09T04:06:18.893Z,52.05
2023-05-09T04:07:20.810Z,51.90
2023-05-09T04:08:22.342Z,52.06
2023-05-09T04:09:23.917Z,51.54
2023-05-09T04:10:25.747Z,52.02
2023-05-09T04:11:27.300Z,52.02
2023-05-09T04:12:28.854Z,52.02
2023-05-09T04:13:31.778Z,52.65
2023-05-09T04:14:33.369Z,54.74
2023-05-09T04:15:34.926Z,53.78
2023-05-09T04:16:36.520Z,53.29
2023-05-09T04:17:38.089Z,52.91
2023-05-09T04:18:42.179Z,52.68
2023-05-09T04:19:43.728Z,52.22
2023-05-09T04:20:45.298Z,52.43
2023-05-09T04:21:46.831Z,53.66
2023-05-09T04:22:48.717Z,53.21
2023-05-09T04:23:50.467Z,52.95
2023-05-09T04:24:52.004Z,52.69
2023-05-09T04:25:54.369Z,53.04
2023-05-09T04:26:56.000Z,53.19
2023-05-09T04:27:57.789Z,52.89
2023-05-09T04:28:59.317Z,52.48
2023-05-09T04:30:00.854Z,52.65
2023-05-09T04:31:03.084Z,52.54
2023-05-09T04:32:05.212Z,52.75
2023-05-09T04:33:06.826Z,53.88
2023-05-09T04:34:08.340Z,53.22
2023-05-09T04:35:10.121Z,55.00
2023-05-09T04:36:12.292Z,54.20
2023-05-09T04:37:13.898Z,53.74
2023-05-09T04:38:16.693Z,53.69
2023-05-09T04:39:18.906Z,53.57
2023-05-09T04:40:20.572Z,53.34
2023-05-09T04:41:22.776Z,53.22
2023-05-09T04:42:24.293Z,53.04
2023-05-09T04:43:28.023Z,52.93
2023-05-09T04:44:29.606Z,52.47
2023-05-09T04:45:31.819Z,53.39
2023-05-09T04:46:33.398Z,53.61
2023-05-09T04:47:34.988Z,53.95
2023-05-09T04:48:36.518Z,53.37
2023-05-09T04:49:38.030Z,54.37
2023-05-09T04:50:39.547Z,53.90
2023-05-09T04:51:41.110Z,54.36
2023-05-09T04:52:42.641Z,53.67
2023-05-09T04:53:44.160Z,54.83
2023-05-09T04:54:45.733Z,53.80
2023-05-09T04:55:47.281Z,53.81
2023-05-09T04:56:50.600Z,53.49
2023-05-09T04:57:52.346Z,53.98
2023-05-09T04:58:54.051Z,53.87
2023-05-09T04:59:55.901Z,53.38
2023-05-09T05:00:57.411Z,53.54
2023-05-09T05:01:59.171Z,53.33
2023-05-09T05:03:01.452Z,53.46
2023-05-09T05:04:03.001Z,53.55
2023-05-09T05:05:11.456Z,53.52
2023-05-09T05:06:13.904Z,53.53
2023-05-09T05:07:15.796Z,55.79
2023-05-09T05:08:17.635Z,56.04
2023-05-09T05:09:19.173Z,55.18
2023-05-09T05:10:20.937Z,54.64
2023-05-09T05:11:22.657Z,54.06
2023-05-09T05:12:24.878Z,55.08
2023-05-09T05:13:26.549Z,55.96
2023-05-09T05:14:28.528Z,56.61
2023-05-09T05:15:32.439Z,55.86
2023-05-09T05:16:34.869Z,56.34
2023-05-09T05:17:36.665Z,55.51
2023-05-09T05:18:38.233Z,55.71
2023-05-09T05:19:39.828Z,56.53
2023-05-09T05:20:41.765Z,55.84
2023-05-09T05:21:43.768Z,56.72
2023-05-09T05:22:45.879Z,55.81
2023-05-09T05:23:50.132Z,55.94
2023-05-09T05:24:52.122Z,55.33
2023-05-09T05:25:53.904Z,54.90
2023-05-09T05:26:55.582Z,54.40
2023-05-09T05:27:57.550Z,55.12
2023-05-09T05:29:01.557Z,55.58
2023-05-09T05:30:04.031Z,54.67
2023-05-09T05:31:05.926Z,54.28
2023-05-09T05:32:07.523Z,53.90
2023-05-09T05:33:09.492Z,52.88
2023-05-09T05:34:11.122Z,52.47
2023-05-09T05:35:12.903Z,52.21
2023-05-09T05:36:14.885Z,52.59
2023-05-09T05:37:16.401Z,52.86
2023-05-09T05:38:18.239Z,52.36
2023-05-09T05:39:19.801Z,52.21
2023-05-09T05:40:21.389Z,51.71
2023-05-09T05:41:23.484Z,51.56
2023-05-09T05:42:25.022Z,50.82
2023-05-09T05:43:26.549Z,52.14
2023-05-09T05:44:28.064Z,51.89
2023-05-09T05:45:31.007Z,52.06
2023-05-09T05:46:32.667Z,51.02
2023-05-09T05:47:35.281Z,51.28
2023-05-09T05:48:37.179Z,51.49
2023-05-09T05:49:38.793Z,50.33
2023-05-09T05:50:40.325Z,49.93
2023-05-09T05:51:41.888Z,49.49
2023-05-09T05:52:43.440Z,49.48
2023-05-09T05:53:45.277Z,49.21
2023-05-09T05:54:47.291Z,50.08
2023-05-09T05:55:49.175Z,49.78
2023-05-09T05:56:50.938Z,47.82
2023-05-09T05:57:52.516Z,48.16
2023-05-09T05:58:54.418Z,50.10
2023-05-09T05:59:55.935Z,49.43
2023-05-09T06:00:57.815Z,49.00
2023-05-09T06:01:59.409Z,48.53
2023-05-09T06:03:01.175Z,47.73
2023-05-09T06:04:03.980Z,47.32
2023-05-09T06:05:07.239Z,47.11
2023-05-09T06:06:08.989Z,48.07
2023-05-09T06:07:14.107Z,47.48
2023-05-09T06:08:16.190Z,47.67
2023-05-09T06:09:17.770Z,47.92
2023-05-09T06:10:19.440Z,49.11
2023-05-09T06:11:21.249Z,48.87
2023-05-09T06:12:22.768Z,48.75
2023-05-09T06:13:24.534Z,48.40
2023-05-09T06:14:26.229Z,48.31
2023-05-09T06:15:27.758Z,48.54
2023-05-09T06:16:29.354Z,48.00
2023-05-09T06:17:30.990Z,47.65
2023-05-09T06:18:37.584Z,47.56
2023-05-09T06:19:39.093Z,47.43
2023-05-09T06:20:40.887Z,47.15
2023-05-09T06:21:45.725Z,46.86
2023-05-09T06:22:47.619Z,47.07
2023-05-09T06:24:04.975Z,47.55
2023-05-09T06:25:12.800Z,48.48
2023-05-09T06:26:15.015Z,48.04
2023-05-09T06:27:16.559Z,48.23
2023-05-09T06:28:18.076Z,47.72
2023-05-09T06:29:19.617Z,47.95
2023-05-09T06:31:26.288Z,47.33
2023-05-09T06:32:27.859Z,48.93
2023-05-09T06:33:29.484Z,49.02
2023-05-09T06:34:31.013Z,48.41
2023-05-09T06:35:33.010Z,47.74
2023-05-09T06:36:34.847Z,48.02
2023-05-09T06:37:36.338Z,48.57
2023-05-09T06:38:38.747Z,47.79
2023-05-09T06:39:40.461Z,47.42
2023-05-09T06:40:45.635Z,47.00
2023-05-09T06:41:47.607Z,46.99
2023-05-09T06:44:14.824Z,45.96
2023-05-09T07:54:40.132Z,40.48
2023-05-09T07:55:51.894Z,40.03
2023-05-09T07:56:53.500Z,39.02
2023-05-09T07:57:55.050Z,38.64
2023-05-09T07:58:56.709Z,38.41
2023-05-09T07:59:58.325Z,38.79
2023-05-09T08:00:59.883Z,37.48
2023-05-09T08:02:02.156Z,37.53
2023-05-09T08:03:03.998Z,37.55
2023-05-09T08:04:07.008Z,37.34
2023-05-09T08:05:08.792Z,37.11
2023-05-09T08:06:11.193Z,37.43
2023-05-09T08:07:13.062Z,38.05
2023-05-09T08:08:14.599Z,37.87
2023-05-09T08:09:19.419Z,38.50
2023-05-09T08:10:22.370Z,38.21
2023-05-09T08:11:23.940Z,37.40
2023-05-09T08:12:25.964Z,38.56
2023-05-09T08:13:27.647Z,38.25
2023-05-09T08:14:29.934Z,37.99
2023-05-09T08:16:19.946Z,37.56
2023-05-09T08:17:21.556Z,36.19
2023-05-09T08:18:25.538Z,36.25
2023-05-09T08:19:27.189Z,36.32
2023-05-09T08:20:29.263Z,36.10
2023-05-09T08:21:33.690Z,36.57
2023-05-09T08:22:35.589Z,36.37
2023-05-09T08:23:37.436Z,35.70
2023-05-09T08:24:39.298Z,35.80
2023-05-09T08:25:40.882Z,35.96
2023-05-09T08:26:42.421Z,36.09
2023-05-09T08:27:44.739Z,35.70
2023-05-09T08:28:46.279Z,35.84
2023-05-09T08:29:47.823Z,35.52
2023-05-09T08:30:49.424Z,35.69
2023-05-09T08:31:53.794Z,35.79
2023-05-09T08:32:56.656Z,35.68
2023-05-09T08:33:58.255Z,34.14
2023-05-09T08:34:59.770Z,34.07
2023-05-09T08:36:02.056Z,34.31
2023-05-09T08:37:04.241Z,34.76
2023-05-09T08:38:05.877Z,34.72
2023-05-09T08:39:09.476Z,34.44
2023-05-09T09:16:29.001Z,36.87
2023-05-09T09:17:30.650Z,36.32
2023-05-09T09:18:32.257Z,35.30
2023-05-09T09:19:34.099Z,34.95
2023-05-09T09:20:36.763Z,35.23
2023-05-09T09:21:40.221Z,35.09
2023-05-09T09:22:43.110Z,34.42
2023-05-09T09:23:45.148Z,33.33
2023-05-09T09:46:54.719Z,33.73
2023-05-09T09:47:55.580Z,32.96
2023-05-09T09:48:56.958Z,32.39
2023-05-09T09:49:58.462Z,32.47
2023-05-09T09:51:09.963Z,31.89
2023-05-09T09:52:11.870Z,31.98
2023-05-09T09:53:13.730Z,32.46
2023-05-09T09:54:15.456Z,32.61
2023-05-09T09:55:17.844Z,32.35
2023-05-09T09:56:21.454Z,31.87
2023-05-09T09:57:37.037Z,31.94
2023-05-09T09:58:38.583Z,31.50
2023-05-09T09:59:40.121Z,31.78
2023-05-09T10:00:41.701Z,31.93
2023-05-09T10:03:17.443Z,32.40
2023-05-09T10:04:19.001Z,31.60
2023-05-09T10:05:24.092Z,31.78
2023-05-09T10:06:25.609Z,31.68
2023-05-09T10:07:27.148Z,31.01
2023-05-09T10:08:28.660Z,31.41
2023-05-09T10:09:30.194Z,31.24
2023-05-09T10:10:32.743Z,30.51
2023-05-09T10:11:34.312Z,30.84
2023-05-09T10:12:36.894Z,29.89
2023-05-09T10:13:38.808Z,29.29
2023-05-09T10:14:40.799Z,29.31
2023-05-09T10:15:53.049Z,28.93
2023-05-09T10:16:57.157Z,28.81
2023-05-09T10:18:00.949Z,29.18
2023-05-09T10:19:02.757Z,30.05
2023-05-09T10:20:07.767Z,28.38
2023-05-09T10:21:09.442Z,27.78
2023-05-09T10:22:11.067Z,28.35
2023-05-09T10:23:12.597Z,28.22
2023-05-09T10:24:14.122Z,28.24
2023-05-09T10:25:25.983Z,28.09
2023-05-09T10:26:29.076Z,28.52
2023-05-09T10:27:34.832Z,28.02
2023-05-09T10:28:36.397Z,28.38
2023-05-09T10:29:40.451Z,29.11
2023-05-09T10:30:58.514Z,28.24
2023-05-09T10:32:00.251Z,28.24
2023-05-09T10:33:09.064Z,27.54
2023-05-09T10:34:10.690Z,27.78
2023-05-09T10:35:14.092Z,27.49
2023-05-09T10:36:18.212Z,26.76
2023-05-09T10:37:21.759Z,26.12
2023-05-09T10:38:24.670Z,25.97
2023-05-09T10:39:27.408Z,26.39
2023-05-09T10:40:29.175Z,25.92
2023-05-09T10:41:31.162Z,27.23
2023-05-09T10:42:32.928Z,26.38
2023-05-09T10:43:36.608Z,26.87
2023-05-09T10:44:38.288Z,25.85
2023-05-09T10:45:40.079Z,25.73
2023-05-09T10:46:41.662Z,25.31
2023-05-09T10:47:43.796Z,25.10
2023-05-09T10:48:45.511Z,25.18
2023-05-09T10:49:47.384Z,24.26
2023-05-09T10:50:49.091Z,25.01
2023-05-09T10:51:53.654Z,25.29
2023-05-09T10:53:04.282Z,25.55
2023-05-09T10:54:13.725Z,24.99
2023-05-09T10:55:15.588Z,25.46
2023-05-09T10:56:33.611Z,24.95
2023-05-09T10:57:35.508Z,25.13
2023-05-09T10:58:41.388Z,24.37
2023-05-09T10:59:43.402Z,24.83
2023-05-09T11:00:45.005Z,25.42
2023-05-09T11:01:46.855Z,25.09
2023-05-09T11:03:07.998Z,25.32
2023-05-09T11:04:11.502Z,25.68
2023-05-09T11:05:20.286Z,25.06
2023-05-09T11:06:40.857Z,25.57
2023-05-09T11:07:44.024Z,25.54
2023-05-09T11:08:45.717Z,25.69
2023-05-09T11:09:47.228Z,26.36
2023-05-09T11:10:48.807Z,26.42
2023-05-09T11:11:54.004Z,25.30
2023-05-09T11:13:00.044Z,25.30
2023-05-09T11:14:01.556Z,25.73
2023-05-09T11:15:07.752Z,25.41
2023-05-09T11:16:09.995Z,25.51
2023-05-09T11:17:12.948Z,25.66
2023-05-09T11:18:14.562Z,26.42
2023-05-09T11:19:37.074Z,25.60
2023-05-09T11:20:45.329Z,25.07
2023-05-09T11:22:03.484Z,25.25
2023-05-09T11:23:06.479Z,25.11
2023-05-09T11:24:17.489Z,25.22
2023-05-09T11:25:25.279Z,26.35
2023-05-09T11:26:28.830Z,24.25
2023-05-09T11:27:44.697Z,25.29
2023-05-09T11:28:52.381Z,25.08
2023-05-09T11:29:58.594Z,25.21
2023-05-09T11:31:13.784Z,25.25
2023-05-09T11:32:16.123Z,24.81
2023-05-09T11:33:24.974Z,25.19
2023-05-09T11:34:26.494Z,25.43
2023-05-09T11:35:28.038Z,25.15
2023-05-09T11:36:32.104Z,25.99
2023-05-09T11:37:34.051Z,25.43
2023-05-09T11:38:41.997Z,25.63
2023-05-09T11:39:58.600Z,25.58
2023-05-09T11:41:00.108Z,25.27
2023-05-09T11:42:02.021Z,25.29
2023-05-09T11:43:03.941Z,24.72
2023-05-09T11:44:15.697Z,24.58
2023-05-09T11:45:17.509Z,24.85
2023-05-09T11:46:19.244Z,24.30
2023-05-09T11:47:21.788Z,24.69
2023-05-09T11:48:24.479Z,24.50
2023-05-09T11:49:26.002Z,24.14
2023-05-09T11:50:27.559Z,24.16
2023-05-09T11:51:30.435Z,24.00
2023-05-09T11:52:32.354Z,23.74
2023-05-09T11:53:34.125Z,24.42
2023-05-09T11:54:39.304Z,24.17
2023-05-09T11:55:41.260Z,24.73
2023-05-09T11:56:42.797Z,23.78
2023-05-09T11:57:52.185Z,23.96
2023-05-09T11:58:53.717Z,23.97
2023-05-09T11:59:55.519Z,24.28
2023-05-09T12:00:57.481Z,24.79
2023-05-09T12:02:05.576Z,24.01
2023-05-09T12:03:07.943Z,24.16
2023-05-09T12:04:09.710Z,23.26
2023-05-09T12:05:16.010Z,23.33
2023-05-09T12:06:18.902Z,23.13
2023-05-09T12:07:20.633Z,23.03
2023-05-09T12:08:23.134Z,23.58
2023-05-09T12:09:25.871Z,24.03
2023-05-09T12:10:27.448Z,24.18
2023-05-09T12:11:32.245Z,24.60
2023-05-09T12:12:35.427Z,24.36
2023-05-09T12:13:50.282Z,24.57
2023-05-09T12:14:51.999Z,24.15
2023-05-09T12:16:00.518Z,24.16
2023-05-09T12:17:02.145Z,23.94
2023-05-09T12:18:05.132Z,23.34
2023-05-09T12:19:06.783Z,22.95
2023-05-09T12:20:08.975Z,23.21
2023-05-09T12:21:10.729Z,23.20
2023-05-09T12:22:12.256Z,22.98
2023-05-09T12:23:14.883Z,23.25
2023-05-09T12:24:23.091Z,21.61
2023-05-09T12:25:24.618Z,22.08
2023-05-09T12:26:27.095Z,22.39
2023-05-09T12:27:29.152Z,21.98
2023-05-09T12:28:31.203Z,21.51
2023-05-09T12:29:32.855Z,21.25
2023-05-09T12:30:34.499Z,21.50
2023-05-09T12:31:37.276Z,20.69
2023-05-09T12:32:40.189Z,20.44
2023-05-09T12:33:42.500Z,20.63
2023-05-09T12:34:48.539Z,20.07
2023-05-09T12:36:11.284Z,19.88
2023-05-09T12:37:17.371Z,20.77
2023-05-09T12:38:22.202Z,20.38
2023-05-09T12:39:24.473Z,20.97
2023-05-09T12:40:26.209Z,20.45
2023-05-09T12:41:39.291Z,20.24
2023-05-09T12:42:46.439Z,20.26
2023-05-09T12:43:49.106Z,19.69
2023-05-09T12:44:50.683Z,19.57
2023-05-09T12:45:55.398Z,20.02
2023-05-09T12:47:03.664Z,19.01
2023-05-09T12:48:06.193Z,18.52
2023-05-09T12:49:20.053Z,19.02
2023-05-09T12:50:21.815Z,19.52
2023-05-09T12:51:23.566Z,18.89
2023-05-09T12:52:25.173Z,19.71
2023-05-09T12:53:27.520Z,18.68
2023-05-09T12:54:29.638Z,19.01
2023-05-09T12:55:32.780Z,18.62
2023-05-09T12:56:35.278Z,18.72
2023-05-09T12:57:37.162Z,18.82
2023-05-09T12:58:39.518Z,18.38
2023-05-09T12:59:43.775Z,18.65
2023-05-09T13:00:45.580Z,18.88
2023-05-09T13:02:00.496Z,16.54
2023-05-09T13:03:02.654Z,15.92
2023-05-09T13:04:05.270Z,15.49
2023-05-09T13:05:11.116Z,16.07
2023-05-09T13:06:13.858Z,16.04
2023-05-09T13:07:15.389Z,16.36
2023-05-09T13:08:17.236Z,17.13
2023-05-09T13:09:18.874Z,17.10
2023-05-09T13:10:24.165Z,16.51
2023-05-09T13:11:25.917Z,17.02
2023-05-09T13:12:27.437Z,17.36
2023-05-09T13:13:29.428Z,17.25
2023-05-09T13:14:31.057Z,17.02
2023-05-09T13:15:33.774Z,16.94
2023-05-09T13:16:35.774Z,16.94
2023-05-09T13:17:37.779Z,17.30
2023-05-09T13:18:39.410Z,18.11
2023-05-09T13:19:41.144Z,18.33
2023-05-09T13:20:42.690Z,18.60
2023-05-09T13:21:44.226Z,18.41
2023-05-09T13:22:46.049Z,18.68
2023-05-09T13:23:50.499Z,18.44
2023-05-09T13:24:52.156Z,18.85
2023-05-09T13:25:53.928Z,19.13
2023-05-09T13:26:55.666Z,18.99
2023-05-09T13:27:57.222Z,18.15
2023-05-09T13:28:58.796Z,18.31
2023-05-09T13:30:00.422Z,19.05
2023-05-09T13:31:02.971Z,18.05
2023-05-09T13:32:04.667Z,18.19
2023-05-09T13:33:23.782Z,18.08
2023-05-09T13:34:26.560Z,17.90
2023-05-09T13:35:28.293Z,17.82
2023-05-09T13:36:29.882Z,17.80
2023-05-09T13:37:31.407Z,17.77
2023-05-09T13:38:37.074Z,18.10
2023-05-09T13:39:38.576Z,18.03
2023-05-09T13:40:40.171Z,18.64
2023-05-09T13:41:41.708Z,18.20
2023-05-09T13:42:43.284Z,17.70
2023-05-09T13:43:44.832Z,18.11
2023-05-09T13:44:46.356Z,18.54
2023-05-09T13:45:47.917Z,18.29
2023-05-09T13:46:49.934Z,18.69
2023-05-09T13:47:52.057Z,18.81
2023-05-09T13:48:54.204Z,17.95
2023-05-09T13:49:55.909Z,18.00
2023-05-09T13:50:59.525Z,17.73
2023-05-09T13:52:01.496Z,18.64
2023-05-09T13:53:03.711Z,18.52
2023-05-09T13:54:09.652Z,18.50
2023-05-09T13:55:11.255Z,18.34
2023-05-09T13:56:12.886Z,17.75
2023-05-09T13:57:14.425Z,17.67
2023-05-09T13:58:16.614Z,17.67
2023-05-09T13:59:18.301Z,17.89
2023-05-09T14:00:21.377Z,17.73
2023-05-09T14:01:23.439Z,18.49
2023-05-09T14:02:25.146Z,18.60
2023-05-09T14:03:27.090Z,18.70
2023-05-09T14:04:29.524Z,19.15
2023-05-09T14:05:34.122Z,18.91
2023-05-09T14:06:35.684Z,20.01
2023-05-09T14:07:37.636Z,19.17
2023-05-09T14:08:39.844Z,18.50
2023-05-09T14:09:42.232Z,18.84
2023-05-09T14:10:44.613Z,19.05
2023-05-09T14:11:46.114Z,18.87
2023-05-09T14:12:48.107Z,19.36
2023-05-09T14:13:49.640Z,18.60
2023-05-09T14:14:51.253Z,18.11
2023-05-09T14:15:52.867Z,17.83
2023-05-09T14:16:54.662Z,17.98
2023-05-09T14:17:57.308Z,17.49
2023-05-09T14:18:58.906Z,18.12
2023-05-09T14:20:00.483Z,18.17
2023-05-09T14:21:02.007Z,17.44
2023-05-09T14:22:04.425Z,17.80
2023-05-09T14:23:06.190Z,17.99
2023-05-09T14:24:07.958Z,17.94
2023-05-09T14:25:12.548Z,17.90
2023-05-09T14:26:14.097Z,17.01
2023-05-09T14:27:16.420Z,16.73
2023-05-09T14:28:18.008Z,16.99
2023-05-09T14:29:19.527Z,17.15
2023-05-09T14:30:21.060Z,17.51
2023-05-09T14:31:22.587Z,17.88
2023-05-09T14:32:25.351Z,17.21
2023-05-09T14:33:27.931Z,17.40
2023-05-09T14:34:29.496Z,17.24
2023-05-09T14:35:34.103Z,17.23
2023-05-09T14:36:37.480Z,17.86
2023-05-09T14:37:39.655Z,17.42
2023-05-09T14:38:42.716Z,17.41
2023-05-09T14:39:45.134Z,17.57
2023-05-09T14:40:46.786Z,17.10
2023-05-09T14:41:50.055Z,17.90
2023-05-09T14:42:51.678Z,18.21
2023-05-09T14:43:53.187Z,18.16
2023-05-09T14:44:54.729Z,18.07
2023-05-09T14:45:57.229Z,17.51
2023-05-09T14:46:59.040Z,17.56
2023-05-09T14:48:00.685Z,17.64
2023-05-09T14:49:04.258Z,17.81
2023-05-09T14:50:07.346Z,17.95
2023-05-09T14:51:09.195Z,17.90
2023-05-09T14:52:11.025Z,18.16
2023-05-09T14:53:12.955Z,17.85
2023-05-09T14:54:15.661Z,18.22
2023-05-09T14:55:21.306Z,18.02
2023-05-09T14:56:23.277Z,18.80
2023-05-09T14:57:25.139Z,18.83
2023-05-09T14:58:27.406Z,18.08
2023-05-09T14:59:29.527Z,18.56
2023-05-09T15:00:31.087Z,17.98
2023-05-09T15:01:33.065Z,18.87
2023-05-09T15:02:34.682Z,18.01
2023-05-09T15:03:36.245Z,18.27
2023-05-09T15:04:37.885Z,18.71
2023-05-09T15:05:39.629Z,18.38
2023-05-09T15:06:41.170Z,18.62
2023-05-09T15:07:42.772Z,18.62
2023-05-09T15:08:44.352Z,18.70
2023-05-09T15:09:45.986Z,18.74
2023-05-09T15:10:48.267Z,18.91
2023-05-09T15:11:49.831Z,18.85
2023-05-09T15:12:51.479Z,19.52
2023-05-09T15:13:53.159Z,18.99
2023-05-09T15:14:55.485Z,19.12
2023-05-09T15:15:57.308Z,19.27
2023-05-09T15:17:01.668Z,19.28
2023-05-09T15:18:03.388Z,19.13
2023-05-09T15:19:05.817Z,19.70
2023-05-09T15:20:07.813Z,19.78
2023-05-09T15:21:09.731Z,19.13
2023-05-09T15:22:11.629Z,20.24
2023-05-09T15:23:13.582Z,19.79
2023-05-09T15:24:15.864Z,19.81
2023-05-09T15:25:17.550Z,19.89
2023-05-09T15:26:19.095Z,19.98
2023-05-09T15:27:20.717Z,20.28
2023-05-09T15:28:22.342Z,20.36
2023-05-09T15:29:23.890Z,19.82
2023-05-09T15:30:25.542Z,20.13
2023-05-09T15:31:31.622Z,20.02
2023-05-09T15:32:33.790Z,20.46
2023-05-09T15:33:35.333Z,20.85
2023-05-09T15:34:36.858Z,21.05
2023-05-09T15:35:38.593Z,21.18
2023-05-09T15:36:40.119Z,21.48
2023-05-09T15:37:41.716Z,21.87
2023-05-09T15:38:48.335Z,22.18
2023-05-09T15:39:49.926Z,22.34
2023-05-09T15:40:51.724Z,22.42
2023-05-09T15:41:53.951Z,22.32
2023-05-09T15:42:55.533Z,22.15
2023-05-09T15:43:57.470Z,22.40
2023-05-09T15:44:58.991Z,22.68